This is the latest recevied weather packets stored in our database for station/object CE1JFB-10. If no packets are shown the sender has not sent any weather packets the latest 10 day(s).
| Time | Temp. | Humidity | Pressure | Rain* | Wind** | Luminosity | Snow |
|---|---|---|---|---|---|---|---|
| 1788077042 | 21.11° C | 64% | 1013.7 hPa | - | - | - | - |
| 1788073442 | 21.11° C | 62% | 1013.8 hPa | - | - | - | - |
| 1788069841 | 21.11° C | 61% | 1014.3 hPa | - | - | - | - |
| 1788066241 | 21.11° C | 61% | 1014.7 hPa | - | - | - | - |
| 1788062641 | 21.67° C | 61% | 1014.8 hPa | - | - | - | - |
| 1788059041 | 21.67° C | 62% | 1015.1 hPa | - | - | - | - |
| 1788055441 | 21.67° C | 61% | 1015.3 hPa | - | - | - | - |
| 1788051841 | 22.22° C | 60% | 1015.2 hPa | - | - | - | - |
| 1788048241 | 22.22° C | 60% | 1014.5 hPa | - | - | - | - |
| 1788044641 | 22.22° C | 59% | 1014.1 hPa | - | - | - | - |
| 1788041041 | 22.78° C | 56% | 1013.6 hPa | - | - | - | - |
| 1788037441 | 23.33° C | 56% | 1012.8 hPa | - | - | - | - |
| 1788033840 | 23.33° C | 55% | 1012.3 hPa | - | - | - | - |
| 1788030240 | 24.44° C | 51% | 1012.2 hPa | - | - | - | - |
| 1788026640 | 23.89° C | 51% | 1012.6 hPa | - | - | - | - |
| 1788023040 | 23.89° C | 51% | 1012.9 hPa | - | - | - | - |
| 1788019440 | 25° C | 50% | 1013.4 hPa | - | - | - | - |
| 1788015840 | 23.33° C | 54% | 1013.9 hPa | - | - | - | - |
| 1788012240 | 21.67° C | 59% | 1013.8 hPa | - | - | - | - |
| 1788008640 | 21.67° C | 60% | 1013.4 hPa | - | - | - | - |
| 1788005040 | 21.11° C | 61% | 1013 hPa | - | - | - | - |
| 1788001440 | 21.11° C | 62% | 1012.2 hPa | - | - | - | - |
| 1787997839 | 21.11° C | 62% | 1011.7 hPa | - | - | - | - |
| 1787994239 | 21.11° C | 62% | 1011.5 hPa | - | - | - | - |
| 1787990639 | 21.11° C | 62% | 1012.1 hPa | - | - | - | - |
* Rain since midnight (hover to see other rain measurements)
** Current wind speed in m/s (hover to see current wind gust speed)